KSUA/SUA METAR and TAF weather

Enter ICAO airport designator
Station Type Date Time Source
KSUA METAR 2018/12/15 04:15 UTC NOAA

KSUA 150415Z AUTO 17006KT 10SM CLR 23/21 A3002 RMK AO2


Station Type Date Time Source
KSUA Decoded METAR 2018/12/15 04:15 UTC NOAA

Stuart, Witham Field Airport, FL, United States (KSUA) 27-10-54N 080-13-16W
Dec 14, 2018 - 11:15 PM EST / 2018.12.15 0415 UTC
Wind: from the S (170 degrees) at 7 MPH (6 KT):0
Visibility: 10 mile(s):0
Sky conditions: clear
Temperature: 73 F (23 C)
Dew Point: 69 F (21 C)
Relative Humidity: 88%
Pressure (altimeter): 30.02 in. Hg (1016 hPa)
ob: KSUA 150415Z AUTO 17006KT 10SM CLR 23/21 A3002 RMK AO2
cycle: 4

Station Type Date Time Source
KSUA TAF 2018/12/14 22:18 UTC NOAA

TAF
AMD KSUA 142216Z 1422/1518 15014G25KT P6SM FEW015 SCT035
FM150000 17010KT P6SM SCT025 BKN040 OVC100
FM150900 19007KT 6SM SHRA VCTS SCT015 BKN030CB
FM151300 22005KT P6SM VCSH SCT010 BKN025


Example: see airport list